Time;durP1;ratioP1;P1;durP2;ratioP2;P2;SDS_P1;SDS_P2;PMS_P1;PMS_P2;Temp;Humidity;BMP_temperature;BMP_pressure;BME280_temperature;BME280_humidity;BME280_pressure;Samples;Min_cycle;Max_cycle;Signal;HPM_P1;HPM_P2
2022/10/27 00:02:30;;;;;;;3.20;0.77;;;;;;;;;;10491922;28;20044;-79
2022/10/27 00:07:36;;;;;;;2.13;0.70;;;;;;;;;;10494936;28;20110;-78
2022/10/27 00:12:39;;;;;;;3.75;0.90;;;;;;;;;;10491790;28;20047;-78
2022/10/27 00:17:44;;;;;;;0.63;0.52;;;;;;;;;;10503190;28;20041;-79
2022/10/27 00:22:47;;;;;;;1.50;0.60;;;;;;;;;;10500849;28;20044;-78
2022/10/27 00:27:51;;;;;;;1.42;0.60;;;;;;;;;;10494890;28;20047;-78
2022/10/27 00:32:55;;;;;;;3.03;0.60;;;;;;;;;;10507923;28;20075;-79
2022/10/27 00:37:59;;;;;;;2.83;0.90;;;;;;;;;;10517650;28;20044;-79
2022/10/27 00:43:02;;;;;;;1.83;0.40;;;;;;;;;;10479818;28;20116;-79
2022/10/27 00:48:07;;;;;;;1.00;0.40;;;;;;;;;;10489578;28;20055;-78
2022/10/27 00:53:10;;;;;;;0.50;0.40;;;;;;;;;;10509550;28;20037;-79
2022/10/27 00:58:16;;;;;;;1.27;0.35;;;;;;;;;;10534241;28;20059;-77
2022/10/27 01:03:22;;;;;;;;;;;;;;;;;;10475476;28;20040;-78
2022/10/27 01:08:26;;;;;;;0.50;0.30;;;;;;;;;;10521658;28;19924;-78
2022/10/27 01:13:30;;;;;;;1.55;0.32;;;;;;;;;;10530484;28;20040;-79
2022/10/27 01:18:43;;;;;;;0.30;0.30;;;;;;;;;;10541136;28;20078;-80
2022/10/27 01:24:02;;;;;;;0.73;0.40;;;;;;;;;;10503328;28;20036;-78
2022/10/27 01:29:39;;;;;;;0.93;0.32;;;;;;;;;;10516960;28;20050;-78
2022/10/27 01:34:48;;;;;;;2.60;0.32;;;;;;;;;;10503374;28;20041;-79
2022/10/27 01:39:59;;;;;;;3.42;0.80;;;;;;;;;;10491611;28;20044;-79
2022/10/27 01:45:06;;;;;;;0.52;0.40;;;;;;;;;;10516791;28;20520;-79
2022/10/27 01:50:11;;;;;;;2.42;0.95;;;;;;;;;;10530470;28;20090;-79
2022/10/27 01:55:19;;;;;;;1.30;0.35;;;;;;;;;;10508594;28;20043;-79
2022/10/27 02:00:22;;;;;;;1.30;0.45;;;;;;;;;;10520590;28;20104;-79
2022/10/27 02:05:34;;;;;;;0.70;0.35;;;;;;;;;;10519746;28;20593;-79
2022/10/27 02:10:45;;;;;;;1.13;0.55;;;;;;;;;;10478161;28;20047;-79
2022/10/27 02:15:53;;;;;;;3.08;0.50;;;;;;;;;;10487133;28;20052;-79
2022/10/27 02:21:00;;;;;;;3.60;0.30;;;;;;;;;;10518335;28;20059;-79
2022/10/27 02:26:08;;;;;;;0.88;0.45;;;;;;;;;;10501859;28;20419;-79
2022/10/27 02:31:14;;;;;;;1.95;0.60;;;;;;;;;;10503942;28;20419;-79
2022/10/27 02:36:19;;;;;;;3.17;0.45;;;;;;;;;;10495932;28;20041;-79
2022/10/27 02:41:22;;;;;;;2.20;0.30;;;;;;;;;;10483968;28;20041;-79
2022/10/27 02:46:25;;;;;;;2.65;0.65;;;;;;;;;;10525256;28;20044;-81
2022/10/27 02:51:30;;;;;;;0.35;0.30;;;;;;;;;;10516271;28;20055;-81
2022/10/27 02:56:33;;;;;;;1.42;0.70;;;;;;;;;;10506092;28;20047;-80
2022/10/27 03:01:36;;;;;;;5.93;0.68;;;;;;;;;;10517730;28;20056;-81
2022/10/27 03:06:41;;;;;;;2.90;0.65;;;;;;;;;;10498195;28;20044;-81
2022/10/27 03:11:44;;;;;;;1.65;0.75;;;;;;;;;;10515859;28;20052;-81
2022/10/27 03:16:48;;;;;;;3.35;0.70;;;;;;;;;;10522292;28;20043;-81
2022/10/27 03:21:52;;;;;;;4.00;0.55;;;;;;;;;;10494346;28;20055;-80
2022/10/27 03:26:56;;;;;;;1.15;0.47;;;;;;;;;;10497911;28;20056;-81
2022/10/27 03:31:59;;;;;;;2.97;0.40;;;;;;;;;;10498471;28;20048;-81
2022/10/27 03:37:03;;;;;;;1.00;0.38;;;;;;;;;;10496103;28;20045;-82
2022/10/27 03:42:07;;;;;;;0.98;0.60;;;;;;;;;;10490115;28;20655;-81
2022/10/27 03:47:10;;;;;;;1.08;0.70;;;;;;;;;;10509719;28;20046;-81
2022/10/27 03:52:15;;;;;;;0.73;0.60;;;;;;;;;;10430506;28;1299697;-81
2022/10/27 03:57:18;;;;;;;0.52;0.30;;;;;;;;;;10533684;28;20044;-81
2022/10/27 04:02:21;;;;;;;0.70;0.40;;;;;;;;;;10485688;28;20052;-81
2022/10/27 04:07:26;;;;;;;0.40;0.40;;;;;;;;;;10502685;28;20695;-81
2022/10/27 04:12:29;;;;;;;0.57;0.30;;;;;;;;;;10498799;28;20040;-81
2022/10/27 04:17:32;;;;;;;2.25;0.55;;;;;;;;;;10514652;28;20047;-81
2022/10/27 04:22:37;;;;;;;1.05;0.40;;;;;;;;;;10508944;28;20488;-79
2022/10/27 04:27:40;;;;;;;0.65;0.40;;;;;;;;;;10532757;28;20043;-79
2022/10/27 04:32:44;;;;;;;0.68;0.65;;;;;;;;;;10486706;28;20047;-78
2022/10/27 04:37:48;;;;;;;0.57;0.40;;;;;;;;;;10487848;28;20430;-78
2022/10/27 04:42:52;;;;;;;1.67;0.30;;;;;;;;;;10509911;28;20048;-78
2022/10/27 04:47:55;;;;;;;3.63;0.80;;;;;;;;;;10485856;28;20051;-79
2022/10/27 04:53:01;;;;;;;2.83;1.45;;;;;;;;;;10491941;28;20055;-79
2022/10/27 04:58:04;;;;;;;2.88;1.30;;;;;;;;;;10494686;28;20058;-79
2022/10/27 05:03:10;;;;;;;1.25;0.82;;;;;;;;;;10526596;28;20068;-78
2022/10/27 05:08:15;;;;;;;1.92;0.90;;;;;;;;;;10509399;28;20045;-78
2022/10/27 05:13:18;;;;;;;1.48;0.77;;;;;;;;;;10509127;28;20052;-78
2022/10/27 05:18:22;;;;;;;1.10;0.80;;;;;;;;;;10504441;28;20040;-79
2022/10/27 05:23:26;;;;;;;2.38;0.93;;;;;;;;;;10511312;28;20040;-79
2022/10/27 05:28:29;;;;;;;2.03;0.98;;;;;;;;;;10512297;28;20044;-79
2022/10/27 05:33:33;;;;;;;3.58;1.02;;;;;;;;;;10512351;28;20048;-79
2022/10/27 05:38:38;;;;;;;1.10;1.00;;;;;;;;;;10518331;28;20040;-78
2022/10/27 05:43:41;;;;;;;2.75;1.60;;;;;;;;;;10530973;28;20048;-79
2022/10/27 05:48:45;;;;;;;2.25;1.48;;;;;;;;;;10505581;28;20677;-79
2022/10/27 05:53:51;;;;;;;1.20;0.95;;;;;;;;;;10490617;28;20056;-79
2022/10/27 05:58:54;;;;;;;2.05;0.95;;;;;;;;;;10506772;28;20052;-79
2022/10/27 06:03:58;;;;;;;2.50;1.25;;;;;;;;;;10507024;28;20059;-79
2022/10/27 06:09:02;;;;;;;4.38;1.27;;;;;;;;;;10516262;28;20044;-79
2022/10/27 06:14:06;;;;;;;2.70;1.40;;;;;;;;;;10529339;28;20559;-79
2022/10/27 06:19:09;;;;;;;3.10;1.50;;;;;;;;;;10481283;28;20047;-79
2022/10/27 06:24:14;;;;;;;10.43;2.10;;;;;;;;;;10518199;28;20040;-79
2022/10/27 06:29:17;;;;;;;6.68;1.73;;;;;;;;;;10498111;28;20431;-79
2022/10/27 06:34:21;;;;;;;3.78;1.40;;;;;;;;;;10502861;28;20047;-79
2022/10/27 06:39:27;;;;;;;3.15;1.35;;;;;;;;;;10513872;28;20105;-79
2022/10/27 06:44:30;;;;;;;4.68;1.50;;;;;;;;;;10478911;28;20049;-78
2022/10/27 06:49:33;;;;;;;5.07;1.40;;;;;;;;;;10493186;28;20518;-78
2022/10/27 06:54:38;;;;;;;2.17;1.20;;;;;;;;;;10494513;28;20040;-79
2022/10/27 06:59:41;;;;;;;12.13;1.40;;;;;;;;;;10509939;28;20036;-79
2022/10/27 07:04:44;;;;;;;5.03;0.82;;;;;;;;;;10496623;28;20507;-79
2022/10/27 07:09:49;;;;;;;3.17;0.77;;;;;;;;;;10499445;28;20044;-79
2022/10/27 07:14:52;;;;;;;4.90;2.00;;;;;;;;;;10493355;28;20064;-79
2022/10/27 07:19:55;;;;;;;1.80;1.20;;;;;;;;;;10496143;28;20742;-79
2022/10/27 07:25:00;;;;;;;0.65;0.60;;;;;;;;;;10493025;28;20251;-79
2022/10/27 07:30:04;;;;;;;1.58;0.70;;;;;;;;;;10525653;28;20620;-79
2022/10/27 07:35:08;;;;;;;0.88;0.60;;;;;;;;;;10509615;28;20497;-79
2022/10/27 07:40:14;;;;;;;0.60;0.43;;;;;;;;;;10496374;28;20538;-78
2022/10/27 07:45:19;;;;;;;0.63;0.43;;;;;;;;;;10520431;28;20044;-79
2022/10/27 07:50:26;;;;;;;1.52;0.60;;;;;;;;;;10517619;28;20148;-79
2022/10/27 07:55:33;;;;;;;0.80;0.73;;;;;;;;;;10482786;28;20047;-77
2022/10/27 08:00:37;;;;;;;;;;;;;;;;;;10519917;28;20048;-81
2022/10/27 08:05:40;;;;;;;0.63;0.40;;;;;;;;;;10474645;28;20557;-80
2022/10/27 08:10:46;;;;;;;1.27;0.65;;;;;;;;;;10507875;28;20407;-80
2022/10/27 08:15:49;;;;;;;1.30;0.60;;;;;;;;;;10496603;28;20056;-78
2022/10/27 08:20:52;;;;;;;0.80;0.50;;;;;;;;;;10518845;28;20043;-81
2022/10/27 08:25:58;;;;;;;0.45;0.45;;;;;;;;;;10508599;28;20051;-80
2022/10/27 08:31:01;;;;;;;0.63;0.50;;;;;;;;;;10532022;28;20070;-80
2022/10/27 08:36:04;;;;;;;0.50;0.45;;;;;;;;;;10530233;28;20047;-79
2022/10/27 08:41:19;;;;;;;0.30;0.30;;;;;;;;;;10517704;28;20427;-80
2022/10/27 08:46:29;;;;;;;0.47;0.30;;;;;;;;;;10516789;28;20041;-78
2022/10/27 08:51:34;;;;;;;0.50;0.50;;;;;;;;;;10485195;28;20512;-80
2022/10/27 08:56:41;;;;;;;2.07;0.60;;;;;;;;;;10535187;28;20050;-81
2022/10/27 09:01:52;;;;;;;1.73;1.10;;;;;;;;;;10487517;28;20043;-78
2022/10/27 09:07:05;;;;;;;1.20;0.55;;;;;;;;;;10513895;28;20427;-78
2022/10/27 09:12:17;;;;;;;1.40;0.90;;;;;;;;;;10519198;28;20059;-81
2022/10/27 09:17:24;;;;;;;0.50;0.50;;;;;;;;;;10510685;28;20044;-79
2022/10/27 09:22:30;;;;;;;0.85;0.50;;;;;;;;;;10511965;28;20039;-78
2022/10/27 09:27:37;;;;;;;0.43;0.40;;;;;;;;;;10532466;28;20046;-83
2022/10/27 09:32:42;;;;;;;0.60;0.60;;;;;;;;;;10510918;28;20586;-81
2022/10/27 09:37:46;;;;;;;1.75;0.50;;;;;;;;;;10510298;28;20047;-84
2022/10/27 09:42:52;;;;;;;1.65;0.93;;;;;;;;;;10519948;28;20056;-80
2022/10/27 09:47:59;;;;;;;0.90;0.70;;;;;;;;;;10509630;28;20148;-79
2022/10/27 09:53:04;;;;;;;1.10;0.80;;;;;;;;;;10495812;28;20041;-79
2022/10/27 09:58:08;;;;;;;3.58;0.60;;;;;;;;;;10475485;28;20048;-81
2022/10/27 10:03:19;;;;;;;1.55;0.63;;;;;;;;;;10491023;28;20047;-83
2022/10/27 10:08:24;;;;;;;1.30;0.60;;;;;;;;;;10484690;28;20041;-79
2022/10/27 10:13:30;;;;;;;1.42;0.52;;;;;;;;;;10482339;28;20041;-79
2022/10/27 10:18:34;;;;;;;;;;;;;;;;;;10507019;28;20143;-78
2022/10/27 10:23:49;;;;;;;2.08;0.80;;;;;;;;;;10478897;28;19947;-80
2022/10/27 10:28:56;;;;;;;1.88;0.60;;;;;;;;;;10485817;28;20044;-79
2022/10/27 10:34:07;;;;;;;1.15;0.60;;;;;;;;;;10519764;28;20092;-79
2022/10/27 10:39:23;;;;;;;3.25;0.98;;;;;;;;;;10476573;28;20040;-79
2022/10/27 10:44:28;;;;;;;3.30;0.93;;;;;;;;;;10505754;28;20040;-80
2022/10/27 10:49:35;;;;;;;3.35;0.93;;;;;;;;;;10509045;28;20130;-80
2022/10/27 10:54:43;;;;;;;0.77;0.60;;;;;;;;;;10481136;28;20601;-80
2022/10/27 10:59:51;;;;;;;1.55;0.77;;;;;;;;;;10510058;28;20043;-79
2022/10/27 11:04:56;;;;;;;3.33;0.93;;;;;;;;;;10516484;28;20048;-78
2022/10/27 11:10:03;;;;;;;2.75;0.63;;;;;;;;;;10501900;28;20033;-79
2022/10/27 11:15:17;;;;;;;2.47;0.85;;;;;;;;;;10471065;28;20072;-78
2022/10/27 11:20:25;;;;;;;3.33;0.73;;;;;;;;;;10520432;28;20154;-80
2022/10/27 11:25:31;;;;;;;1.65;0.75;;;;;;;;;;10510568;28;20575;-79
2022/10/27 11:30:42;;;;;;;1.88;0.52;;;;;;;;;;10490289;28;20044;-81
2022/10/27 11:35:52;;;;;;;3.50;1.15;;;;;;;;;;10533855;28;20055;-78
2022/10/27 11:41:02;;;;;;;2.30;0.88;;;;;;;;;;10504819;28;20043;-80
2022/10/27 11:46:11;;;;;;;3.35;0.90;;;;;;;;;;10503095;28;20064;-77
2022/10/27 11:51:17;;;;;;;1.85;0.93;;;;;;;;;;10501976;28;20075;-79
2022/10/27 11:56:34;;;;;;;4.70;1.08;;;;;;;;;;10466372;28;20045;-78
2022/10/27 12:01:51;;;;;;;2.22;0.90;;;;;;;;;;10501181;28;20044;-78
2022/10/27 12:07:04;;;;;;;1.10;0.47;;;;;;;;;;10504415;28;20048;-78
2022/10/27 12:12:13;;;;;;;2.88;0.82;;;;;;;;;;10523896;28;20650;-79
2022/10/27 12:17:23;;;;;;;1.13;0.73;;;;;;;;;;10521980;28;20545;-79
2022/10/27 12:22:32;;;;;;;2.30;0.95;;;;;;;;;;10489017;28;20043;-78
2022/10/27 12:27:37;;;;;;;5.03;1.38;;;;;;;;;;10506184;28;20063;-79
2022/10/27 12:32:48;;;;;;;3.40;1.20;;;;;;;;;;10474765;28;20052;-78
2022/10/27 12:38:00;;;;;;;2.47;1.02;;;;;;;;;;10494014;28;20205;-78
2022/10/27 12:43:33;;;;;;;3.72;1.20;;;;;;;;;;10496142;22;20041;-79
2022/10/27 12:55:12;;;;;;;4.93;1.10;;;;;;;;;;10343264;23;20055;-80
2022/10/27 13:00:18;;;;;;;3.70;0.80;;;;;;;;;;10306038;28;20557;-78
2022/10/27 13:05:46;;;;;;;1.73;0.85;;;;;;;;;;10300229;28;20537;-78
2022/10/27 13:11:10;;;;;;;2.72;1.20;;;;;;;;;;10314282;28;20046;-78
2022/10/27 13:16:21;;;;;;;3.33;1.33;;;;;;;;;;10272979;28;20329;-79
2022/10/27 13:21:29;;;;;;;3.42;1.40;;;;;;;;;;10321555;28;20061;-78
2022/10/27 13:26:40;;;;;;;2.38;1.10;;;;;;;;;;10307090;28;20046;-78
2022/10/27 13:31:43;;;;;;;3.95;1.40;;;;;;;;;;10310223;28;20874;-77
2022/10/27 13:36:47;;;;;;;3.63;1.88;;;;;;;;;;10314450;28;20053;-79
2022/10/27 13:42:13;;;;;;;4.40;1.30;;;;;;;;;;10293627;28;20150;-78
2022/10/27 13:47:19;;;;;;;4.00;1.38;;;;;;;;;;10288425;28;20062;-77
2022/10/27 13:52:23;;;;;;;3.95;1.55;;;;;;;;;;10312758;28;20114;-78
2022/10/27 13:58:14;;;;;;;3.55;1.17;;;;;;;;;;10313648;28;20054;-78
2022/10/27 14:03:44;;;;;;;3.17;1.05;;;;;;;;;;10316631;28;20054;-78
2022/10/27 14:08:49;;;;;;;2.03;1.00;;;;;;;;;;10308817;28;20050;-77
2022/10/27 14:13:57;;;;;;;5.23;1.50;;;;;;;;;;10288919;28;20058;-79
2022/10/27 14:19:04;;;;;;;5.03;1.30;;;;;;;;;;10289484;28;20297;-78
2022/10/27 14:24:14;;;;;;;2.60;1.10;;;;;;;;;;10297703;28;20050;-77
2022/10/27 14:29:23;;;;;;;5.35;1.42;;;;;;;;;;10301017;28;20053;-78
2022/10/27 14:34:27;;;;;;;3.03;1.20;;;;;;;;;;10291420;28;20061;-77
2022/10/27 14:39:34;;;;;;;5.00;1.70;;;;;;;;;;10275729;28;20047;-78
2022/10/27 14:44:38;;;;;;;2.67;1.40;;;;;;;;;;10290952;28;20499;-78
2022/10/27 14:49:47;;;;;;;2.83;1.02;;;;;;;;;;10285839;28;20553;-77
2022/10/27 14:54:54;;;;;;;4.50;1.92;;;;;;;;;;10307051;28;20050;-78
2022/10/27 14:59:59;;;;;;;2.00;1.23;;;;;;;;;;10302431;28;20653;-77
2022/10/27 15:05:13;;;;;;;2.38;1.30;;;;;;;;;;10299860;28;20045;-77
2022/10/27 15:10:17;;;;;;;4.00;1.70;;;;;;;;;;10296732;28;20495;-77
2022/10/27 15:15:26;;;;;;;3.47;1.60;;;;;;;;;;10309252;28;20071;-77
2022/10/27 15:20:29;;;;;;;3.55;1.33;;;;;;;;;;10298213;28;20073;-77
2022/10/27 15:25:32;;;;;;;2.75;1.20;;;;;;;;;;10305271;28;20057;-79
2022/10/27 15:30:41;;;;;;;2.50;1.02;;;;;;;;;;10297155;28;20038;-77
2022/10/27 15:35:51;;;;;;;1.70;0.85;;;;;;;;;;10289141;28;20046;-78
2022/10/27 15:40:55;;;;;;;5.97;0.98;;;;;;;;;;10286742;28;20046;-78
2022/10/27 15:46:09;;;;;;;1.85;1.10;;;;;;;;;;10280539;28;20046;-78
2022/10/27 15:51:15;;;;;;;2.95;1.02;;;;;;;;;;10283375;28;20046;-78
2022/10/27 15:56:35;;;;;;;3.47;1.02;;;;;;;;;;10291999;28;20085;-78
2022/10/27 16:01:42;;;;;;;1.58;1.10;;;;;;;;;;10297506;28;20670;-77
2022/10/27 16:06:45;;;;;;;2.13;1.20;;;;;;;;;;10302271;28;20043;-77
2022/10/27 16:11:50;;;;;;;4.82;2.08;;;;;;;;;;10307900;28;20047;-77
2022/10/27 16:16:57;;;;;;;2.83;1.58;;;;;;;;;;10277421;28;20046;-79
2022/10/27 16:22:03;;;;;;;3.13;1.33;;;;;;;;;;10308088;28;20047;-78
2022/10/27 16:27:09;;;;;;;4.05;1.60;;;;;;;;;;10310239;28;20511;-77
2022/10/27 16:32:14;;;;;;;4.15;1.75;;;;;;;;;;10307057;28;20034;-77
2022/10/27 16:37:21;;;;;;;3.50;1.95;;;;;;;;;;10305004;28;20046;-77
2022/10/27 16:42:26;;;;;;;4.00;2.13;;;;;;;;;;10305689;28;20042;-78
2022/10/27 16:47:30;;;;;;;2.90;1.70;;;;;;;;;;10304667;28;20050;-77
2022/10/27 16:52:34;;;;;;;3.45;1.30;;;;;;;;;;10300391;28;20430;-77
2022/10/27 16:57:37;;;;;;;1.92;1.20;;;;;;;;;;10306605;28;20053;-78
2022/10/27 17:02:42;;;;;;;2.42;1.30;;;;;;;;;;10297349;28;20046;-77
2022/10/27 17:07:47;;;;;;;2.63;1.10;;;;;;;;;;10308669;28;20046;-77
2022/10/27 17:12:50;;;;;;;2.17;0.95;;;;;;;;;;10301708;28;20038;-77
2022/10/27 17:17:55;;;;;;;3.05;1.20;;;;;;;;;;10311955;28;20693;-78
2022/10/27 17:23:00;;;;;;;2.75;1.60;;;;;;;;;;10292719;28;20047;-78
2022/10/27 17:28:06;;;;;;;2.95;1.30;;;;;;;;;;10299689;28;20070;-77
2022/10/27 17:33:10;;;;;;;3.05;1.15;;;;;;;;;;10308347;28;20053;-78
2022/10/27 17:38:13;;;;;;;4.13;1.25;;;;;;;;;;10303186;28;20557;-77
2022/10/27 17:43:17;;;;;;;3.38;1.48;;;;;;;;;;10297808;28;20039;-77
2022/10/27 17:48:21;;;;;;;2.15;1.15;;;;;;;;;;10307149;28;20054;-78
2022/10/27 17:53:24;;;;;;;5.22;1.42;;;;;;;;;;10302991;28;20388;-78
2022/10/27 17:58:32;;;;;;;1.85;1.05;;;;;;;;;;10300469;28;20173;-81
2022/10/27 18:03:39;;;;;;;2.92;1.40;;;;;;;;;;10295216;28;20073;-79
2022/10/27 18:08:43;;;;;;;4.10;1.60;;;;;;;;;;10313345;28;20042;-77
2022/10/27 18:13:48;;;;;;;1.27;0.98;;;;;;;;;;10315909;28;20046;-79
2022/10/27 18:18:55;;;;;;;3.33;1.17;;;;;;;;;;10302706;28;20138;-77
2022/10/27 18:23:59;;;;;;;4.65;1.60;;;;;;;;;;10323656;28;20054;-78
2022/10/27 18:29:03;;;;;;;2.72;1.15;;;;;;;;;;10300756;28;20046;-78
2022/10/27 18:34:17;;;;;;;4.68;1.20;;;;;;;;;;10297545;28;20035;-78
2022/10/27 18:39:21;;;;;;;2.30;1.25;;;;;;;;;;10307440;28;20078;-79
2022/10/27 18:44:25;;;;;;;2.95;1.20;;;;;;;;;;10315807;28;20114;-77
2022/10/27 18:49:30;;;;;;;3.67;1.17;;;;;;;;;;10305890;28;20092;-77
2022/10/27 18:54:46;;;;;;;3.40;1.30;;;;;;;;;;10284151;28;20045;-77
2022/10/27 18:59:49;;;;;;;5.03;1.50;;;;;;;;;;10304772;28;20057;-77
2022/10/27 19:04:55;;;;;;;2.92;1.10;;;;;;;;;;10299750;28;20046;-77
2022/10/27 19:09:58;;;;;;;2.23;1.33;;;;;;;;;;10306010;28;20415;-78
2022/10/27 19:15:04;;;;;;;1.90;1.58;;;;;;;;;;10303658;28;20044;-78
2022/10/27 19:20:09;;;;;;;2.30;1.30;;;;;;;;;;10281549;28;20054;-77
2022/10/27 19:25:12;;;;;;;4.10;1.27;;;;;;;;;;10291168;28;20068;-77
2022/10/27 19:30:20;;;;;;;4.05;1.40;;;;;;;;;;10275764;28;20456;-77
2022/10/27 19:35:24;;;;;;;4.25;1.85;;;;;;;;;;10305773;28;20054;-78
2022/10/27 19:40:28;;;;;;;3.05;1.92;;;;;;;;;;10299450;28;20079;-78
2022/10/27 19:45:34;;;;;;;2.95;1.48;;;;;;;;;;10317094;28;20058;-78
2022/10/27 19:50:40;;;;;;;5.63;1.80;;;;;;;;;;10294562;28;20043;-78
2022/10/27 19:55:44;;;;;;;2.80;1.42;;;;;;;;;;10297303;28;20053;-78
2022/10/27 20:00:47;;;;;;;2.25;1.35;;;;;;;;;;10324160;28;20133;-78
2022/10/27 20:05:55;;;;;;;5.55;1.63;;;;;;;;;;10323847;28;20053;-78
2022/10/27 20:10:58;;;;;;;3.50;1.60;;;;;;;;;;10301346;28;20499;-78
2022/10/27 20:16:03;;;;;;;3.80;1.33;;;;;;;;;;10303581;28;20066;-78
2022/10/27 20:21:08;;;;;;;2.72;1.27;;;;;;;;;;10298178;28;20076;-78
2022/10/27 20:26:13;;;;;;;3.35;1.40;;;;;;;;;;10327494;28;20039;-78
2022/10/27 20:31:33;;;;;;;2.33;1.17;;;;;;;;;;10292612;28;20042;-78
2022/10/27 20:36:39;;;;;;;4.28;1.10;;;;;;;;;;10298809;28;20046;-78
2022/10/27 20:41:42;;;;;;;4.05;1.25;;;;;;;;;;10285733;28;20049;-79
2022/10/27 20:46:46;;;;;;;3.88;1.13;;;;;;;;;;10310066;28;20050;-78
2022/10/27 20:51:51;;;;;;;3.30;1.50;;;;;;;;;;10282119;28;20046;-78
2022/10/27 20:56:54;;;;;;;3.85;1.90;;;;;;;;;;10306460;28;20046;-78
2022/10/27 21:01:58;;;;;;;2.45;1.42;;;;;;;;;;10315248;28;20049;-78
2022/10/27 21:07:02;;;;;;;1.88;1.40;;;;;;;;;;10318185;28;20061;-78
2022/10/27 21:12:06;;;;;;;5.18;1.58;;;;;;;;;;10327841;28;20122;-79
2022/10/27 21:17:10;;;;;;;3.60;1.63;;;;;;;;;;10311311;28;20064;-79
2022/10/27 21:22:14;;;;;;;2.80;1.23;;;;;;;;;;10313242;28;20034;-78
2022/10/27 21:27:19;;;;;;;2.35;1.48;;;;;;;;;;10299381;28;20565;-78
2022/10/27 21:32:22;;;;;;;7.07;1.60;;;;;;;;;;10315701;28;20042;-78
2022/10/27 21:37:28;;;;;;;2.63;1.50;;;;;;;;;;10296065;28;20054;-78
2022/10/27 21:42:31;;;;;;;6.28;1.45;;;;;;;;;;10298477;28;20074;-78
2022/10/27 21:47:34;;;;;;;5.13;1.80;;;;;;;;;;10313455;28;20049;-78
2022/10/27 21:52:39;;;;;;;4.57;2.00;;;;;;;;;;10306555;28;20038;-78
2022/10/27 21:57:42;;;;;;;4.78;1.67;;;;;;;;;;10306503;28;20042;-78
2022/10/27 22:02:46;;;;;;;2.58;2.03;;;;;;;;;;10306009;28;20518;-78
2022/10/27 22:07:50;;;;;;;4.72;2.03;;;;;;;;;;10310730;28;20526;-78
2022/10/27 22:12:54;;;;;;;5.82;1.52;;;;;;;;;;10279381;28;20046;-79
2022/10/27 22:17:57;;;;;;;4.57;1.77;;;;;;;;;;10291335;28;20055;-78
2022/10/27 22:23:02;;;;;;;3.95;1.70;;;;;;;;;;10302471;28;20047;-78
2022/10/27 22:28:05;;;;;;;3.47;1.60;;;;;;;;;;10290453;28;20038;-78
2022/10/27 22:33:08;;;;;;;3.53;1.55;;;;;;;;;;10312147;28;20053;-79
2022/10/27 22:38:13;;;;;;;4.32;1.60;;;;;;;;;;10316576;28;20046;-79
2022/10/27 22:43:16;;;;;;;4.97;1.58;;;;;;;;;;10290205;28;20118;-79
2022/10/27 22:48:19;;;;;;;3.88;1.38;;;;;;;;;;10315298;28;20038;-79
2022/10/27 22:53:24;;;;;;;2.85;1.27;;;;;;;;;;10315207;28;20050;-79
2022/10/27 22:58:27;;;;;;;4.07;1.33;;;;;;;;;;10306201;28;20423;-79
2022/10/27 23:03:30;;;;;;;3.67;1.30;;;;;;;;;;10306933;28;20042;-78
2022/10/27 23:08:35;;;;;;;3.03;1.83;;;;;;;;;;10322283;28;20052;-78
2022/10/27 23:13:39;;;;;;;3.40;1.45;;;;;;;;;;10313121;28;20051;-79
2022/10/27 23:18:42;;;;;;;4.05;1.42;;;;;;;;;;10322450;28;20057;-78
2022/10/27 23:23:49;;;;;;;4.00;1.50;;;;;;;;;;10302779;28;20676;-78
2022/10/27 23:28:55;;;;;;;1.83;1.20;;;;;;;;;;10321483;28;20058;-79
2022/10/27 23:34:00;;;;;;;2.95;1.20;;;;;;;;;;10309082;28;20035;-78
2022/10/27 23:39:05;;;;;;;4.97;1.40;;;;;;;;;;10290300;28;20046;-79
2022/10/27 23:44:08;;;;;;;2.10;1.08;;;;;;;;;;10311292;28;20038;-78
2022/10/27 23:49:11;;;;;;;2.38;1.02;;;;;;;;;;10322487;28;20046;-78
2022/10/27 23:54:16;;;;;;;2.13;1.10;;;;;;;;;;10297544;28;20046;-78
2022/10/27 23:59:19;;;;;;;5.05;1.40;;;;;;;;;;10297027;28;20047;-78
